sensor_id;sensor_type;location;lat;lon;timestamp;P1;durP1;ratioP1;P2;durP2;ratioP2
579;SDS011;276;48.392;9.950;2023-06-24T00:00:49;8.00;;;7.30;;
579;SDS011;276;48.392;9.950;2023-06-24T00:03:17;8.83;;;8.03;;
579;SDS011;276;48.392;9.950;2023-06-24T00:05:47;8.17;;;7.43;;
579;SDS011;276;48.392;9.950;2023-06-24T00:08:17;7.67;;;7.03;;
579;SDS011;276;48.392;9.950;2023-06-24T00:10:48;6.17;;;5.57;;
579;SDS011;276;48.392;9.950;2023-06-24T00:13:15;6.33;;;5.83;;
579;SDS011;276;48.392;9.950;2023-06-24T00:15:41;6.97;;;6.37;;
579;SDS011;276;48.392;9.950;2023-06-24T00:18:08;6.70;;;6.10;;
579;SDS011;276;48.392;9.950;2023-06-24T00:20:34;6.67;;;6.17;;
579;SDS011;276;48.392;9.950;2023-06-24T00:23:02;6.53;;;5.57;;
579;SDS011;276;48.392;9.950;2023-06-24T00:25:29;6.53;;;5.30;;
579;SDS011;276;48.392;9.950;2023-06-24T00:27:59;6.17;;;5.73;;
579;SDS011;276;48.392;9.950;2023-06-24T00:30:27;5.87;;;5.37;;
579;SDS011;276;48.392;9.950;2023-06-24T00:32:53;6.47;;;5.97;;
579;SDS011;276;48.392;9.950;2023-06-24T00:35:18;5.37;;;4.87;;
579;SDS011;276;48.392;9.950;2023-06-24T00:37:44;5.43;;;4.67;;
579;SDS011;276;48.392;9.950;2023-06-24T00:40:11;4.83;;;4.53;;
579;SDS011;276;48.392;9.950;2023-06-24T00:42:40;6.00;;;5.50;;
579;SDS011;276;48.392;9.950;2023-06-24T00:45:09;5.40;;;4.93;;
579;SDS011;276;48.392;9.950;2023-06-24T00:47:35;5.43;;;5.03;;
579;SDS011;276;48.392;9.950;2023-06-24T00:50:04;6.50;;;5.90;;
579;SDS011;276;48.392;9.950;2023-06-24T00:52:30;5.77;;;5.27;;
579;SDS011;276;48.392;9.950;2023-06-24T00:54:55;5.80;;;5.30;;
579;SDS011;276;48.392;9.950;2023-06-24T00:57:21;7.23;;;5.70;;
579;SDS011;276;48.392;9.950;2023-06-24T00:59:50;8.90;;;7.07;;
579;SDS011;276;48.392;9.950;2023-06-24T01:02:20;6.97;;;6.40;;
579;SDS011;276;48.392;9.950;2023-06-24T01:04:48;6.30;;;5.80;;
579;SDS011;276;48.392;9.950;2023-06-24T01:07:16;6.63;;;6.13;;
579;SDS011;276;48.392;9.950;2023-06-24T01:09:44;5.30;;;4.80;;
579;SDS011;276;48.392;9.950;2023-06-24T01:12:10;5.53;;;5.03;;
579;SDS011;276;48.392;9.950;2023-06-24T01:14:36;8.40;;;6.57;;
579;SDS011;276;48.392;9.950;2023-06-24T01:17:12;7.13;;;5.83;;
579;SDS011;276;48.392;9.950;2023-06-24T01:28:05;6.50;;;5.93;;
579;SDS011;276;48.392;9.950;2023-06-24T01:30:41;5.97;;;5.47;;
579;SDS011;276;48.392;9.950;2023-06-24T01:33:22;6.87;;;6.37;;
579;SDS011;276;48.392;9.950;2023-06-24T01:35:55;6.57;;;6.07;;
579;SDS011;276;48.392;9.950;2023-06-24T01:38:36;7.37;;;6.67;;
579;SDS011;276;48.392;9.950;2023-06-24T01:41:08;6.30;;;5.80;;
579;SDS011;276;48.392;9.950;2023-06-24T01:43:41;8.30;;;6.63;;
579;SDS011;276;48.392;9.950;2023-06-24T01:46:09;6.33;;;5.80;;
579;SDS011;276;48.392;9.950;2023-06-24T01:48:39;6.00;;;5.50;;
579;SDS011;276;48.392;9.950;2023-06-24T01:51:09;6.60;;;5.87;;
579;SDS011;276;48.392;9.950;2023-06-24T01:53:38;6.70;;;6.00;;
579;SDS011;276;48.392;9.950;2023-06-24T01:56:08;6.10;;;5.37;;
579;SDS011;276;48.392;9.950;2023-06-24T01:58:39;6.43;;;5.93;;
579;SDS011;276;48.392;9.950;2023-06-24T02:01:12;7.27;;;6.67;;
579;SDS011;276;48.392;9.950;2023-06-24T02:03:41;5.77;;;5.37;;
579;SDS011;276;48.392;9.950;2023-06-24T02:06:07;5.93;;;5.43;;
579;SDS011;276;48.392;9.950;2023-06-24T02:08:37;6.90;;;6.40;;
579;SDS011;276;48.392;9.950;2023-06-24T02:11:09;6.43;;;5.87;;
579;SDS011;276;48.392;9.950;2023-06-24T02:13:36;5.80;;;5.30;;
579;SDS011;276;48.392;9.950;2023-06-24T02:16:04;6.70;;;6.03;;
579;SDS011;276;48.392;9.950;2023-06-24T02:18:34;6.10;;;5.60;;
579;SDS011;276;48.392;9.950;2023-06-24T02:21:02;7.00;;;6.40;;
579;SDS011;276;48.392;9.950;2023-06-24T02:23:31;6.60;;;6.10;;
579;SDS011;276;48.392;9.950;2023-06-24T02:25:58;6.37;;;5.77;;
579;SDS011;276;48.392;9.950;2023-06-24T02:28:25;6.00;;;5.57;;
579;SDS011;276;48.392;9.950;2023-06-24T02:30:53;6.47;;;5.87;;
579;SDS011;276;48.392;9.950;2023-06-24T02:33:19;6.33;;;5.83;;
579;SDS011;276;48.392;9.950;2023-06-24T02:35:45;5.80;;;5.30;;
579;SDS011;276;48.392;9.950;2023-06-24T02:38:11;6.40;;;5.90;;
579;SDS011;276;48.392;9.950;2023-06-24T02:40:37;6.20;;;5.60;;
579;SDS011;276;48.392;9.950;2023-06-24T02:43:03;7.60;;;5.70;;
579;SDS011;276;48.392;9.950;2023-06-24T02:45:31;7.17;;;6.40;;
579;SDS011;276;48.392;9.950;2023-06-24T02:47:56;6.90;;;6.30;;
579;SDS011;276;48.392;9.950;2023-06-24T02:50:23;6.70;;;5.63;;
579;SDS011;276;48.392;9.950;2023-06-24T02:52:51;6.37;;;5.30;;
579;SDS011;276;48.392;9.950;2023-06-24T02:55:22;5.90;;;5.43;;
579;SDS011;276;48.392;9.950;2023-06-24T02:57:50;5.03;;;4.57;;
579;SDS011;276;48.392;9.950;2023-06-24T03:00:16;7.03;;;6.43;;
579;SDS011;276;48.392;9.950;2023-06-24T03:02:45;4.90;;;4.50;;
579;SDS011;276;48.392;9.950;2023-06-24T03:05:11;7.67;;;5.50;;
579;SDS011;276;48.392;9.950;2023-06-24T03:07:37;5.57;;;5.07;;
579;SDS011;276;48.392;9.950;2023-06-24T03:10:06;5.37;;;4.97;;
579;SDS011;276;48.392;9.950;2023-06-24T03:12:32;5.37;;;4.93;;
579;SDS011;276;48.392;9.950;2023-06-24T03:15:00;4.97;;;4.57;;
579;SDS011;276;48.392;9.950;2023-06-24T03:17:29;5.60;;;5.10;;
579;SDS011;276;48.392;9.950;2023-06-24T03:19:57;5.87;;;5.27;;
579;SDS011;276;48.392;9.950;2023-06-24T03:22:23;6.53;;;5.93;;
579;SDS011;276;48.392;9.950;2023-06-24T03:24:49;5.03;;;4.63;;
579;SDS011;276;48.392;9.950;2023-06-24T03:27:16;5.33;;;4.93;;
579;SDS011;276;48.392;9.950;2023-06-24T03:29:44;5.77;;;5.27;;
579;SDS011;276;48.392;9.950;2023-06-24T03:32:12;5.53;;;5.13;;
579;SDS011;276;48.392;9.950;2023-06-24T03:34:40;6.20;;;5.30;;
579;SDS011;276;48.392;9.950;2023-06-24T03:37:08;5.97;;;4.70;;
579;SDS011;276;48.392;9.950;2023-06-24T03:39:36;9.80;;;5.13;;
579;SDS011;276;48.392;9.950;2023-06-24T03:42:02;6.07;;;5.47;;
579;SDS011;276;48.392;9.950;2023-06-24T03:44:27;5.10;;;4.70;;
579;SDS011;276;48.392;9.950;2023-06-24T03:46:55;5.60;;;5.10;;
579;SDS011;276;48.392;9.950;2023-06-24T03:49:23;5.27;;;4.77;;
579;SDS011;276;48.392;9.950;2023-06-24T03:51:49;5.23;;;4.77;;
579;SDS011;276;48.392;9.950;2023-06-24T03:54:14;5.20;;;4.80;;
579;SDS011;276;48.392;9.950;2023-06-24T03:56:40;5.47;;;4.97;;
579;SDS011;276;48.392;9.950;2023-06-24T03:59:08;6.07;;;5.57;;
579;SDS011;276;48.392;9.950;2023-06-24T04:01:34;5.70;;;5.20;;
579;SDS011;276;48.392;9.950;2023-06-24T04:04:03;11.73;;;5.00;;
579;SDS011;276;48.392;9.950;2023-06-24T04:06:33;5.50;;;5.10;;
579;SDS011;276;48.392;9.950;2023-06-24T04:08:59;5.70;;;5.30;;
579;SDS011;276;48.392;9.950;2023-06-24T04:11:27;5.87;;;5.27;;
579;SDS011;276;48.392;9.950;2023-06-24T04:13:53;5.43;;;4.70;;
579;SDS011;276;48.392;9.950;2023-06-24T04:16:18;5.63;;;5.07;;
579;SDS011;276;48.392;9.950;2023-06-24T04:18:44;5.23;;;4.73;;
579;SDS011;276;48.392;9.950;2023-06-24T04:21:09;5.77;;;5.27;;
579;SDS011;276;48.392;9.950;2023-06-24T04:23:37;5.40;;;4.93;;
579;SDS011;276;48.392;9.950;2023-06-24T04:26:03;4.90;;;4.50;;
579;SDS011;276;48.392;9.950;2023-06-24T04:28:29;5.77;;;5.30;;
579;SDS011;276;48.392;9.950;2023-06-24T04:30:59;5.73;;;5.23;;
579;SDS011;276;48.392;9.950;2023-06-24T04:33:28;5.83;;;5.33;;
579;SDS011;276;48.392;9.950;2023-06-24T04:35:54;4.87;;;4.47;;
579;SDS011;276;48.392;9.950;2023-06-24T04:38:20;5.10;;;4.70;;
579;SDS011;276;48.392;9.950;2023-06-24T04:40:48;5.87;;;5.47;;
579;SDS011;276;48.392;9.950;2023-06-24T04:43:13;4.97;;;4.60;;
579;SDS011;276;48.392;9.950;2023-06-24T04:45:39;5.27;;;4.87;;
579;SDS011;276;48.392;9.950;2023-06-24T04:48:05;6.07;;;5.57;;
579;SDS011;276;48.392;9.950;2023-06-24T04:50:35;5.50;;;5.00;;
579;SDS011;276;48.392;9.950;2023-06-24T04:53:01;4.93;;;4.53;;
579;SDS011;276;48.392;9.950;2023-06-24T04:55:29;4.90;;;4.50;;
579;SDS011;276;48.392;9.950;2023-06-24T04:57:55;5.57;;;5.13;;
579;SDS011;276;48.392;9.950;2023-06-24T05:00:20;6.63;;;5.10;;
579;SDS011;276;48.392;9.950;2023-06-24T05:02:48;5.70;;;5.30;;
579;SDS011;276;48.392;9.950;2023-06-24T05:05:19;4.90;;;4.50;;
579;SDS011;276;48.392;9.950;2023-06-24T05:07:47;5.33;;;4.83;;
579;SDS011;276;48.392;9.950;2023-06-24T05:10:15;5.60;;;5.20;;
579;SDS011;276;48.392;9.950;2023-06-24T05:12:43;6.40;;;5.90;;
579;SDS011;276;48.392;9.950;2023-06-24T05:15:09;5.40;;;5.00;;
579;SDS011;276;48.392;9.950;2023-06-24T05:17:34;4.83;;;4.33;;
579;SDS011;276;48.392;9.950;2023-06-24T05:20:00;5.33;;;4.93;;
579;SDS011;276;48.392;9.950;2023-06-24T05:22:26;6.37;;;5.37;;
579;SDS011;276;48.392;9.950;2023-06-24T05:24:51;6.50;;;5.90;;
579;SDS011;276;48.392;9.950;2023-06-24T05:27:17;6.70;;;5.50;;
579;SDS011;276;48.392;9.950;2023-06-24T05:29:45;6.47;;;4.77;;
579;SDS011;276;48.392;9.950;2023-06-24T05:32:10;6.40;;;5.20;;
579;SDS011;276;48.392;9.950;2023-06-24T05:34:36;6.33;;;5.20;;
579;SDS011;276;48.392;9.950;2023-06-24T05:37:02;5.07;;;4.63;;
579;SDS011;276;48.392;9.950;2023-06-24T05:39:30;6.77;;;5.53;;
579;SDS011;276;48.392;9.950;2023-06-24T05:41:56;4.70;;;4.40;;
579;SDS011;276;48.392;9.950;2023-06-24T05:44:22;5.70;;;5.20;;
579;SDS011;276;48.392;9.950;2023-06-24T05:46:50;5.90;;;5.40;;
579;SDS011;276;48.392;9.950;2023-06-24T05:49:16;5.90;;;5.30;;
579;SDS011;276;48.392;9.950;2023-06-24T05:51:41;5.10;;;4.70;;
579;SDS011;276;48.392;9.950;2023-06-24T05:54:09;5.57;;;5.10;;
579;SDS011;276;48.392;9.950;2023-06-24T05:56:35;5.97;;;5.43;;
579;SDS011;276;48.392;9.950;2023-06-24T05:59:01;6.30;;;4.60;;
579;SDS011;276;48.392;9.950;2023-06-24T06:01:27;5.07;;;4.63;;
579;SDS011;276;48.392;9.950;2023-06-24T06:03:52;4.90;;;4.50;;
579;SDS011;276;48.392;9.950;2023-06-24T06:06:23;4.60;;;4.30;;
579;SDS011;276;48.392;9.950;2023-06-24T06:08:53;4.77;;;4.43;;
579;SDS011;276;48.392;9.950;2023-06-24T06:11:21;4.93;;;4.53;;
579;SDS011;276;48.392;9.950;2023-06-24T06:13:46;5.10;;;4.70;;
579;SDS011;276;48.392;9.950;2023-06-24T06:16:14;5.17;;;4.77;;
579;SDS011;276;48.392;9.950;2023-06-24T06:18:42;4.33;;;4.03;;
579;SDS011;276;48.392;9.950;2023-06-24T06:21:10;5.40;;;5.00;;
579;SDS011;276;48.392;9.950;2023-06-24T06:23:36;5.73;;;5.23;;
579;SDS011;276;48.392;9.950;2023-06-24T06:26:01;5.17;;;4.77;;
579;SDS011;276;48.392;9.950;2023-06-24T06:28:27;4.93;;;4.53;;
579;SDS011;276;48.392;9.950;2023-06-24T06:30:55;4.40;;;4.10;;
579;SDS011;276;48.392;9.950;2023-06-24T06:33:22;4.93;;;4.60;;
579;SDS011;276;48.392;9.950;2023-06-24T06:35:50;4.70;;;4.30;;
579;SDS011;276;48.392;9.950;2023-06-24T06:38:18;4.20;;;3.90;;
579;SDS011;276;48.392;9.950;2023-06-24T06:40:46;4.80;;;4.40;;
579;SDS011;276;48.392;9.950;2023-06-24T06:43:11;5.90;;;5.40;;
579;SDS011;276;48.392;9.950;2023-06-24T06:45:37;5.57;;;5.03;;
579;SDS011;276;48.392;9.950;2023-06-24T06:48:03;6.73;;;6.13;;
579;SDS011;276;48.392;9.950;2023-06-24T06:50:32;5.47;;;4.97;;
579;SDS011;276;48.392;9.950;2023-06-24T06:52:58;4.93;;;4.53;;
579;SDS011;276;48.392;9.950;2023-06-24T06:55:26;6.40;;;5.80;;
579;SDS011;276;48.392;9.950;2023-06-24T06:57:52;6.30;;;5.80;;
579;SDS011;276;48.392;9.950;2023-06-24T07:00:18;5.30;;;4.90;;
579;SDS011;276;48.392;9.950;2023-06-24T07:02:44;5.20;;;4.80;;
579;SDS011;276;48.392;9.950;2023-06-24T07:05:09;5.77;;;5.27;;
579;SDS011;276;48.392;9.950;2023-06-24T07:07:39;5.30;;;4.93;;
579;SDS011;276;48.392;9.950;2023-06-24T07:10:10;6.00;;;5.60;;
579;SDS011;276;48.392;9.950;2023-06-24T07:12:36;8.30;;;7.70;;
579;SDS011;276;48.392;9.950;2023-06-24T07:15:01;6.10;;;5.50;;
579;SDS011;276;48.392;9.950;2023-06-24T07:17:27;5.60;;;5.10;;
579;SDS011;276;48.392;9.950;2023-06-24T07:19:53;4.70;;;4.40;;
579;SDS011;276;48.392;9.950;2023-06-24T07:22:20;6.10;;;5.70;;
579;SDS011;276;48.392;9.950;2023-06-24T07:24:46;7.13;;;6.53;;
579;SDS011;276;48.392;9.950;2023-06-24T07:27:14;5.27;;;4.87;;
579;SDS011;276;48.392;9.950;2023-06-24T07:29:40;5.50;;;5.10;;
579;SDS011;276;48.392;9.950;2023-06-24T07:32:06;5.43;;;4.37;;
579;SDS011;276;48.392;9.950;2023-06-24T07:34:34;5.43;;;4.97;;
579;SDS011;276;48.392;9.950;2023-06-24T07:37:04;7.10;;;6.60;;
579;SDS011;276;48.392;9.950;2023-06-24T07:39:30;7.17;;;6.57;;
579;SDS011;276;48.392;9.950;2023-06-24T07:41:56;5.83;;;5.23;;
579;SDS011;276;48.392;9.950;2023-06-24T07:44:21;6.10;;;5.53;;
579;SDS011;276;48.392;9.950;2023-06-24T07:46:49;4.90;;;4.50;;
579;SDS011;276;48.392;9.950;2023-06-24T07:49:16;8.37;;;7.60;;
579;SDS011;276;48.392;9.950;2023-06-24T07:51:42;10.40;;;9.67;;
579;SDS011;276;48.392;9.950;2023-06-24T07:54:09;11.03;;;10.23;;
579;SDS011;276;48.392;9.950;2023-06-24T07:56:35;5.90;;;5.40;;
579;SDS011;276;48.392;9.950;2023-06-24T07:59:03;5.13;;;4.73;;
579;SDS011;276;48.392;9.950;2023-06-24T08:01:29;5.70;;;5.20;;
579;SDS011;276;48.392;9.950;2023-06-24T08:03:59;4.57;;;4.27;;
579;SDS011;276;48.392;9.950;2023-06-24T08:06:30;6.87;;;6.47;;
579;SDS011;276;48.392;9.950;2023-06-24T08:08:56;8.53;;;7.83;;
579;SDS011;276;48.392;9.950;2023-06-24T08:11:22;6.17;;;5.77;;
579;SDS011;276;48.392;9.950;2023-06-24T08:13:50;5.40;;;5.00;;
579;SDS011;276;48.392;9.950;2023-06-24T08:16:16;5.93;;;5.50;;
579;SDS011;276;48.392;9.950;2023-06-24T08:18:44;7.93;;;7.23;;
579;SDS011;276;48.392;9.950;2023-06-24T08:21:09;8.47;;;7.73;;
579;SDS011;276;48.392;9.950;2023-06-24T08:23:37;7.73;;;7.13;;
579;SDS011;276;48.392;9.950;2023-06-24T08:26:02;7.30;;;6.70;;
579;SDS011;276;48.392;9.950;2023-06-24T08:28:28;5.57;;;5.17;;
579;SDS011;276;48.392;9.950;2023-06-24T08:30:54;5.10;;;4.70;;
579;SDS011;276;48.392;9.950;2023-06-24T08:33:22;5.77;;;5.37;;
579;SDS011;276;48.392;9.950;2023-06-24T08:35:50;5.80;;;5.40;;
579;SDS011;276;48.392;9.950;2023-06-24T08:38:18;6.70;;;6.23;;
579;SDS011;276;48.392;9.950;2023-06-24T08:40:46;6.70;;;6.20;;
579;SDS011;276;48.392;9.950;2023-06-24T08:43:14;9.83;;;9.13;;
579;SDS011;276;48.392;9.950;2023-06-24T08:45:40;7.30;;;6.70;;
579;SDS011;276;48.392;9.950;2023-06-24T08:48:06;8.30;;;7.70;;
579;SDS011;276;48.392;9.950;2023-06-24T08:50:35;6.30;;;5.90;;
579;SDS011;276;48.392;9.950;2023-06-24T08:53:06;5.50;;;5.10;;
579;SDS011;276;48.392;9.950;2023-06-24T08:55:34;5.60;;;5.20;;
579;SDS011;276;48.392;9.950;2023-06-24T08:58:07;4.67;;;4.37;;
579;SDS011;276;48.392;9.950;2023-06-24T09:00:35;5.10;;;4.73;;
579;SDS011;276;48.392;9.950;2023-06-24T09:03:03;5.00;;;4.70;;
579;SDS011;276;48.392;9.950;2023-06-24T09:05:28;8.37;;;7.60;;
579;SDS011;276;48.392;9.950;2023-06-24T09:07:54;7.37;;;6.87;;
579;SDS011;276;48.392;9.950;2023-06-24T09:10:33;7.13;;;6.53;;
579;SDS011;276;48.392;9.950;2023-06-24T09:13:02;6.10;;;5.70;;
579;SDS011;276;48.392;9.950;2023-06-24T09:15:32;6.43;;;5.90;;
579;SDS011;276;48.392;9.950;2023-06-24T09:17:59;16.07;;;14.93;;
579;SDS011;276;48.392;9.950;2023-06-24T09:20:28;13.10;;;12.03;;
579;SDS011;276;48.392;9.950;2023-06-24T09:22:59;8.70;;;8.07;;
579;SDS011;276;48.392;9.950;2023-06-24T09:25:26;5.70;;;5.20;;
579;SDS011;276;48.392;9.950;2023-06-24T09:27:51;6.80;;;6.23;;
579;SDS011;276;48.392;9.950;2023-06-24T09:30:18;5.73;;;5.37;;
579;SDS011;276;48.392;9.950;2023-06-24T09:32:45;4.73;;;4.43;;
579;SDS011;276;48.392;9.950;2023-06-24T09:35:12;5.10;;;4.70;;
579;SDS011;276;48.392;9.950;2023-06-24T09:37:38;5.17;;;4.70;;
579;SDS011;276;48.392;9.950;2023-06-24T09:40:04;7.40;;;6.80;;
579;SDS011;276;48.392;9.950;2023-06-24T09:42:31;6.37;;;5.97;;
579;SDS011;276;48.392;9.950;2023-06-24T09:44:57;7.10;;;6.60;;
579;SDS011;276;48.392;9.950;2023-06-24T09:47:25;6.20;;;5.70;;
579;SDS011;276;48.392;9.950;2023-06-24T09:49:52;4.83;;;4.50;;
579;SDS011;276;48.392;9.950;2023-06-24T09:52:18;5.53;;;5.13;;
579;SDS011;276;48.392;9.950;2023-06-24T09:54:45;4.77;;;4.47;;
579;SDS011;276;48.392;9.950;2023-06-24T09:57:15;5.10;;;4.80;;
579;SDS011;276;48.392;9.950;2023-06-24T09:59:48;4.40;;;4.10;;
579;SDS011;276;48.392;9.950;2023-06-24T10:02:14;5.97;;;5.47;;
579;SDS011;276;48.392;9.950;2023-06-24T10:04:41;12.40;;;11.57;;
579;SDS011;276;48.392;9.950;2023-06-24T10:07:13;8.70;;;7.90;;
579;SDS011;276;48.392;9.950;2023-06-24T10:09:39;7.20;;;6.70;;
579;SDS011;276;48.392;9.950;2023-06-24T10:12:08;6.10;;;5.37;;
579;SDS011;276;48.392;9.950;2023-06-24T10:14:37;4.60;;;4.30;;
579;SDS011;276;48.392;9.950;2023-06-24T10:17:03;5.13;;;4.73;;
579;SDS011;276;48.392;9.950;2023-06-24T10:19:41;4.87;;;4.43;;
579;SDS011;276;48.392;9.950;2023-06-24T10:22:10;6.73;;;6.23;;
579;SDS011;276;48.392;9.950;2023-06-24T10:24:39;7.20;;;6.70;;
579;SDS011;276;48.392;9.950;2023-06-24T10:27:08;5.30;;;5.00;;
579;SDS011;276;48.392;9.950;2023-06-24T10:29:38;5.27;;;4.87;;
579;SDS011;276;48.392;9.950;2023-06-24T10:32:07;7.73;;;7.20;;
579;SDS011;276;48.392;9.950;2023-06-24T10:34:34;5.80;;;5.40;;
579;SDS011;276;48.392;9.950;2023-06-24T10:44:49;8.17;;;7.57;;
579;SDS011;276;48.392;9.950;2023-06-24T10:47:16;5.90;;;5.50;;
579;SDS011;276;48.392;9.950;2023-06-24T10:49:42;6.90;;;6.30;;
579;SDS011;276;48.392;9.950;2023-06-24T10:52:08;5.00;;;4.70;;
579;SDS011;276;48.392;9.950;2023-06-24T10:54:35;4.03;;;3.80;;
579;SDS011;276;48.392;9.950;2023-06-24T10:57:03;4.50;;;4.10;;
579;SDS011;276;48.392;9.950;2023-06-24T10:59:34;4.37;;;4.07;;
579;SDS011;276;48.392;9.950;2023-06-24T11:02:02;8.23;;;7.63;;
579;SDS011;276;48.392;9.950;2023-06-24T11:04:28;9.73;;;8.93;;
579;SDS011;276;48.392;9.950;2023-06-24T11:07:00;6.53;;;6.03;;
579;SDS011;276;48.392;9.950;2023-06-24T11:09:29;4.40;;;4.10;;
579;SDS011;276;48.392;9.950;2023-06-24T11:11:55;4.03;;;3.73;;
579;SDS011;276;48.392;9.950;2023-06-24T11:14:20;4.03;;;3.70;;
579;SDS011;276;48.392;9.950;2023-06-24T11:16:48;5.80;;;5.40;;
579;SDS011;276;48.392;9.950;2023-06-24T11:19:17;6.70;;;6.23;;
579;SDS011;276;48.392;9.950;2023-06-24T11:21:43;6.57;;;6.07;;
579;SDS011;276;48.392;9.950;2023-06-24T11:24:09;4.63;;;4.33;;
579;SDS011;276;48.392;9.950;2023-06-24T11:26:36;4.40;;;4.10;;
579;SDS011;276;48.392;9.950;2023-06-24T11:29:11;4.50;;;4.10;;
579;SDS011;276;48.392;9.950;2023-06-24T11:31:37;4.33;;;3.97;;
579;SDS011;276;48.392;9.950;2023-06-24T11:34:05;6.43;;;5.97;;
579;SDS011;276;48.392;9.950;2023-06-24T11:36:34;6.00;;;5.53;;
579;SDS011;276;48.392;9.950;2023-06-24T11:39:00;5.43;;;5.03;;
579;SDS011;276;48.392;9.950;2023-06-24T11:41:28;5.10;;;4.80;;
579;SDS011;276;48.392;9.950;2023-06-24T11:43:57;4.40;;;4.10;;
579;SDS011;276;48.392;9.950;2023-06-24T11:46:30;4.27;;;3.97;;
579;SDS011;276;48.392;9.950;2023-06-24T11:49:06;5.10;;;4.70;;
579;SDS011;276;48.392;9.950;2023-06-24T11:51:33;5.97;;;5.57;;
579;SDS011;276;48.392;9.950;2023-06-24T11:54:06;6.20;;;5.70;;
579;SDS011;276;48.392;9.950;2023-06-24T11:56:35;5.33;;;5.00;;
579;SDS011;276;48.392;9.950;2023-06-24T11:59:05;7.53;;;6.93;;
579;SDS011;276;48.392;9.950;2023-06-24T12:01:32;8.17;;;7.50;;
579;SDS011;276;48.392;9.950;2023-06-24T12:04:00;9.50;;;8.70;;
579;SDS011;276;48.392;9.950;2023-06-24T12:06:34;7.43;;;6.93;;
579;SDS011;276;48.392;9.950;2023-06-24T12:09:02;7.20;;;6.60;;
579;SDS011;276;48.392;9.950;2023-06-24T12:11:27;7.60;;;7.00;;
579;SDS011;276;48.392;9.950;2023-06-24T12:13:53;6.50;;;6.00;;
579;SDS011;276;48.392;9.950;2023-06-24T12:16:18;5.37;;;4.97;;
579;SDS011;276;48.392;9.950;2023-06-24T12:18:44;5.20;;;4.80;;
579;SDS011;276;48.392;9.950;2023-06-24T12:21:10;4.10;;;3.80;;
579;SDS011;276;48.392;9.950;2023-06-24T12:23:40;4.23;;;3.93;;
579;SDS011;276;48.392;9.950;2023-06-24T12:26:05;4.53;;;4.20;;
579;SDS011;276;48.392;9.950;2023-06-24T12:28:31;4.97;;;4.67;;
579;SDS011;276;48.392;9.950;2023-06-24T12:30:57;6.20;;;5.80;;
579;SDS011;276;48.392;9.950;2023-06-24T12:33:23;5.40;;;4.97;;
579;SDS011;276;48.392;9.950;2023-06-24T12:35:48;4.77;;;4.47;;
579;SDS011;276;48.392;9.950;2023-06-24T12:38:14;6.33;;;5.93;;
579;SDS011;276;48.392;9.950;2023-06-24T12:40:41;11.30;;;10.50;;
579;SDS011;276;48.392;9.950;2023-06-24T12:43:10;9.70;;;9.00;;
579;SDS011;276;48.392;9.950;2023-06-24T12:45:36;7.80;;;7.10;;
579;SDS011;276;48.392;9.950;2023-06-24T12:48:04;5.50;;;5.10;;
579;SDS011;276;48.392;9.950;2023-06-24T12:50:30;4.50;;;4.20;;
579;SDS011;276;48.392;9.950;2023-06-24T12:52:58;4.00;;;3.80;;
579;SDS011;276;48.392;9.950;2023-06-24T12:55:23;3.83;;;3.60;;
579;SDS011;276;48.392;9.950;2023-06-24T12:57:49;4.50;;;4.20;;
579;SDS011;276;48.392;9.950;2023-06-24T13:00:19;3.50;;;3.30;;
579;SDS011;276;48.392;9.950;2023-06-24T13:02:46;4.20;;;3.80;;
579;SDS011;276;48.392;9.950;2023-06-24T13:05:12;4.07;;;3.77;;
579;SDS011;276;48.392;9.950;2023-06-24T13:07:37;4.23;;;3.93;;
579;SDS011;276;48.392;9.950;2023-06-24T13:10:03;4.80;;;4.40;;
579;SDS011;276;48.392;9.950;2023-06-24T13:12:33;4.97;;;4.60;;
579;SDS011;276;48.392;9.950;2023-06-24T13:14:59;4.17;;;3.87;;
579;SDS011;276;48.392;9.950;2023-06-24T13:17:25;5.70;;;5.30;;
579;SDS011;276;48.392;9.950;2023-06-24T13:19:51;6.50;;;6.07;;
579;SDS011;276;48.392;9.950;2023-06-24T13:22:17;5.13;;;4.80;;
579;SDS011;276;48.392;9.950;2023-06-24T13:24:43;4.77;;;4.47;;
579;SDS011;276;48.392;9.950;2023-06-24T13:27:14;5.93;;;4.20;;
579;SDS011;276;48.392;9.950;2023-06-24T13:29:39;4.47;;;4.07;;
579;SDS011;276;48.392;9.950;2023-06-24T13:32:07;6.03;;;4.63;;
579;SDS011;276;48.392;9.950;2023-06-24T13:34:36;4.30;;;4.00;;
579;SDS011;276;48.392;9.950;2023-06-24T13:37:04;4.20;;;3.90;;
579;SDS011;276;48.392;9.950;2023-06-24T13:39:29;4.07;;;3.77;;
579;SDS011;276;48.392;9.950;2023-06-24T13:41:56;4.73;;;4.43;;
579;SDS011;276;48.392;9.950;2023-06-24T13:44:22;3.63;;;3.43;;
579;SDS011;276;48.392;9.950;2023-06-24T13:46:48;5.17;;;4.67;;
579;SDS011;276;48.392;9.950;2023-06-24T13:49:18;3.60;;;3.40;;
579;SDS011;276;48.392;9.950;2023-06-24T13:51:44;4.17;;;3.87;;
579;SDS011;276;48.392;9.950;2023-06-24T13:54:12;4.87;;;4.50;;
579;SDS011;276;48.392;9.950;2023-06-24T13:56:37;4.87;;;4.57;;
579;SDS011;276;48.392;9.950;2023-06-24T13:59:03;4.30;;;4.03;;
579;SDS011;276;48.392;9.950;2023-06-24T14:01:28;4.10;;;3.70;;
579;SDS011;276;48.392;9.950;2023-06-24T14:03:57;4.23;;;3.93;;
579;SDS011;276;48.392;9.950;2023-06-24T14:06:25;3.10;;;2.90;;
579;SDS011;276;48.392;9.950;2023-06-24T14:08:51;4.33;;;4.03;;
579;SDS011;276;48.392;9.950;2023-06-24T14:11:17;4.10;;;3.80;;
579;SDS011;276;48.392;9.950;2023-06-24T14:13:43;4.03;;;3.73;;
579;SDS011;276;48.392;9.950;2023-06-24T14:16:09;4.20;;;3.67;;
579;SDS011;276;48.392;9.950;2023-06-24T14:18:36;4.87;;;4.50;;
579;SDS011;276;48.392;9.950;2023-06-24T14:21:02;4.93;;;4.57;;
579;SDS011;276;48.392;9.950;2023-06-24T14:23:32;3.83;;;3.63;;
579;SDS011;276;48.392;9.950;2023-06-24T14:25:58;4.57;;;4.27;;
579;SDS011;276;48.392;9.950;2023-06-24T14:28:24;4.87;;;4.47;;
579;SDS011;276;48.392;9.950;2023-06-24T14:30:50;4.17;;;3.87;;
579;SDS011;276;48.392;9.950;2023-06-24T14:33:16;3.90;;;3.67;;
579;SDS011;276;48.392;9.950;2023-06-24T14:35:48;4.10;;;3.80;;
579;SDS011;276;48.392;9.950;2023-06-24T14:38:13;4.27;;;3.97;;
579;SDS011;276;48.392;9.950;2023-06-24T14:40:41;4.03;;;3.73;;
579;SDS011;276;48.392;9.950;2023-06-24T14:43:09;4.80;;;4.50;;
579;SDS011;276;48.392;9.950;2023-06-24T14:45:35;4.10;;;3.80;;
579;SDS011;276;48.392;9.950;2023-06-24T14:48:01;3.87;;;3.67;;
579;SDS011;276;48.392;9.950;2023-06-24T14:50:29;4.90;;;4.50;;
579;SDS011;276;48.392;9.950;2023-06-24T14:52:57;4.70;;;4.40;;
579;SDS011;276;48.392;9.950;2023-06-24T14:55:23;4.67;;;4.37;;
579;SDS011;276;48.392;9.950;2023-06-24T14:57:49;4.00;;;3.70;;
579;SDS011;276;48.392;9.950;2023-06-24T15:00:14;4.33;;;3.93;;
579;SDS011;276;48.392;9.950;2023-06-24T15:02:43;5.40;;;4.90;;
579;SDS011;276;48.392;9.950;2023-06-24T15:05:11;4.07;;;3.80;;
579;SDS011;276;48.392;9.950;2023-06-24T15:07:41;5.13;;;4.73;;
579;SDS011;276;48.392;9.950;2023-06-24T15:10:07;4.13;;;3.80;;
579;SDS011;276;48.392;9.950;2023-06-24T15:12:35;4.77;;;4.37;;
579;SDS011;276;48.392;9.950;2023-06-24T15:15:04;4.90;;;4.60;;
579;SDS011;276;48.392;9.950;2023-06-24T15:17:30;4.63;;;4.33;;
579;SDS011;276;48.392;9.950;2023-06-24T15:19:58;4.83;;;4.43;;
579;SDS011;276;48.392;9.950;2023-06-24T15:22:24;3.90;;;3.63;;
579;SDS011;276;48.392;9.950;2023-06-24T15:24:49;5.13;;;4.73;;
579;SDS011;276;48.392;9.950;2023-06-24T15:27:19;5.20;;;4.80;;
579;SDS011;276;48.392;9.950;2023-06-24T15:29:47;4.70;;;4.23;;
579;SDS011;276;48.392;9.950;2023-06-24T15:32:15;3.33;;;3.13;;
579;SDS011;276;48.392;9.950;2023-06-24T15:34:41;5.37;;;4.97;;
579;SDS011;276;48.392;9.950;2023-06-24T15:37:07;4.33;;;4.03;;
579;SDS011;276;48.392;9.950;2023-06-24T15:39:32;4.97;;;3.70;;
579;SDS011;276;48.392;9.950;2023-06-24T15:41:58;4.50;;;4.20;;
579;SDS011;276;48.392;9.950;2023-06-24T15:44:29;4.20;;;4.00;;
579;SDS011;276;48.392;9.950;2023-06-24T15:46:55;4.97;;;4.57;;
579;SDS011;276;48.392;9.950;2023-06-24T15:49:23;6.40;;;5.90;;
579;SDS011;276;48.392;9.950;2023-06-24T15:51:49;6.40;;;5.90;;
579;SDS011;276;48.392;9.950;2023-06-24T15:54:14;6.40;;;6.00;;
579;SDS011;276;48.392;9.950;2023-06-24T15:56:40;4.93;;;4.57;;
579;SDS011;276;48.392;9.950;2023-06-24T15:59:05;4.57;;;4.27;;
579;SDS011;276;48.392;9.950;2023-06-24T16:01:33;4.50;;;4.13;;